Time;durP1;ratioP1;P1;durP2;ratioP2;P2;SDS_P1;SDS_P2;PMS_P1;PMS_P2;Temp;Humidity;BMP_temperature;BMP_pressure;BME280_temperature;BME280_humidity;BME280_pressure;Samples;Min_cycle;Max_cycle;Signal;HPM_P1;HPM_P2
2023/08/21 00:01:45;;;;;;;5.15;2.42;;;20.20;67.40;;;;;;9175487;19;20039;-69
2023/08/21 00:04:53;;;;;;;8.88;2.40;;;20.10;67.80;;;;;;9183298;19;20017;-69
2023/08/21 00:07:58;;;;;;;10.85;3.13;;;20.10;67.50;;;;;;9182059;19;20804;-69
2023/08/21 00:11:06;;;;;;;4.38;2.15;;;20.10;67.60;;;;;;9182963;19;20468;-70
2023/08/21 00:14:14;;;;;;;8.18;2.22;;;20.00;67.70;;;;;;9183648;19;20010;-70
2023/08/21 00:17:21;;;;;;;11.27;2.70;;;20.00;67.80;;;;;;9181613;19;20057;-68
2023/08/21 00:20:33;;;;;;;7.15;3.15;;;19.90;67.90;;;;;;9183460;19;20039;-69
2023/08/21 00:23:40;;;;;;;7.63;2.30;;;19.90;67.90;;;;;;9182539;19;20567;-69
2023/08/21 00:26:46;;;;;;;7.35;2.72;;;19.90;68.10;;;;;;9180501;19;20026;-71
2023/08/21 00:29:56;;;;;;;5.82;2.47;;;19.70;68.10;;;;;;9180116;19;20048;-70
2023/08/21 00:33:09;;;;;;;9.93;3.38;;;19.80;68.30;;;;;;9182161;19;20026;-68
2023/08/21 00:36:16;;;;;;;7.28;2.25;;;19.80;68.30;;;;;;9176039;19;20495;-68
2023/08/21 00:39:22;;;;;;;9.27;3.20;;;19.80;68.40;;;;;;9176605;19;20040;-68
2023/08/21 00:42:30;;;;;;;5.85;2.30;;;19.70;68.40;;;;;;9170657;19;20031;-69
2023/08/21 00:45:39;;;;;;;8.15;2.42;;;19.70;68.40;;;;;;9178556;19;20018;-69
2023/08/21 00:48:47;;;;;;;10.32;2.58;;;19.70;68.60;;;;;;9178366;19;20016;-70
2023/08/21 00:51:54;;;;;;;7.43;2.60;;;19.70;68.60;;;;;;9180153;19;20513;-68
2023/08/21 00:55:02;;;;;;;11.20;2.53;;;19.70;68.80;;;;;;9179575;19;20794;-69
2023/08/21 00:58:11;;;;;;;4.72;2.25;;;19.60;69.40;;;;;;9175031;19;20019;-69
2023/08/21 01:01:22;;;;;;;8.80;2.80;;;19.60;68.90;;;;;;9175997;19;20103;-69
2023/08/21 01:04:28;;;;;;;7.43;2.50;;;19.60;69.10;;;;;;9176354;19;20011;-70
2023/08/21 01:07:52;;;;;;;7.35;2.33;;;19.50;69.10;;;;;;9176030;19;20018;-69
2023/08/21 01:11:04;;;;;;;4.93;2.30;;;19.50;69.20;;;;;;9177924;19;20017;-68
2023/08/21 01:14:19;;;;;;;6.00;2.83;;;19.50;69.20;;;;;;9181752;19;20022;-70
2023/08/21 01:17:27;;;;;;;6.57;2.97;;;19.50;69.90;;;;;;9181207;19;20030;-71
2023/08/21 01:20:39;;;;;;;8.63;2.77;;;19.50;69.30;;;;;;9180768;19;20104;-69
2023/08/21 01:23:47;;;;;;;8.07;2.75;;;19.50;69.30;;;;;;9178305;19;20018;-68
2023/08/21 01:26:54;;;;;;;8.73;2.78;;;19.50;69.50;;;;;;9180035;19;20077;-69
2023/08/21 01:30:00;;;;;;;7.75;2.47;;;19.50;69.50;;;;;;9177242;19;20095;-68
2023/08/21 01:33:12;;;;;;;10.52;2.78;;;19.40;69.40;;;;;;9181260;19;20026;-70
2023/08/21 01:36:18;;;;;;;7.63;2.80;;;19.40;69.60;;;;;;9181634;19;20030;-70
2023/08/21 01:39:29;;;;;;;8.27;2.53;;;19.40;69.60;;;;;;9178654;19;20018;-70
2023/08/21 01:42:34;;;;;;;5.68;2.25;;;19.40;69.70;;;;;;9175544;19;20022;-70
2023/08/21 01:45:42;;;;;;;6.00;2.38;;;19.40;69.70;;;;;;9175764;19;20437;-68
2023/08/21 01:48:48;;;;;;;4.70;2.35;;;19.30;69.70;;;;;;9175464;19;20018;-69
2023/08/21 01:51:56;;;;;;;9.02;3.22;;;19.30;69.80;;;;;;9178994;19;20015;-69
2023/08/21 01:55:07;;;;;;;5.18;2.33;;;19.30;69.90;;;;;;9178146;19;20356;-71
2023/08/21 01:58:15;;;;;;;7.65;3.03;;;19.30;70.10;;;;;;9178434;19;20014;-70
2023/08/21 02:01:20;;;;;;;5.35;2.53;;;19.30;70.20;;;;;;9178224;19;20014;-69
2023/08/21 02:04:29;;;;;;;7.50;2.50;;;19.30;70.30;;;;;;9178442;19;20368;-69
2023/08/21 02:07:34;;;;;;;11.10;2.47;;;19.20;70.20;;;;;;9178762;19;20010;-68
2023/08/21 02:10:52;;;;;;;5.15;2.75;;;19.20;70.30;;;;;;9176565;19;20038;-68
2023/08/21 02:13:57;;;;;;;10.57;2.97;;;19.20;70.50;;;;;;9178334;19;20015;-69
2023/08/21 02:17:06;;;;;;;5.80;2.80;;;19.20;70.40;;;;;;9176344;19;20014;-69
2023/08/21 02:20:13;;;;;;;10.35;3.10;;;19.20;70.40;;;;;;9175923;19;20018;-69
2023/08/21 02:23:20;;;;;;;7.65;2.63;;;19.10;70.40;;;;;;9177740;19;20018;-69
2023/08/21 02:26:28;;;;;;;5.13;2.78;;;19.10;70.40;;;;;;9176432;19;20423;-70
2023/08/21 02:29:36;;;;;;;6.95;2.72;;;19.10;70.50;;;;;;9175608;19;20019;-70
2023/08/21 02:32:42;;;;;;;6.90;2.70;;;19.10;70.50;;;;;;9175861;19;20029;-69
2023/08/21 02:35:49;;;;;;;7.00;3.05;;;19.00;70.60;;;;;;9177210;19;20688;-69
2023/08/21 02:38:55;;;;;;;7.70;3.25;;;19.10;70.80;;;;;;9178385;19;20459;-69
2023/08/21 02:42:05;;;;;;;5.65;2.60;;;19.00;70.80;;;;;;9170509;19;20022;-68
2023/08/21 02:45:12;;;;;;;9.18;2.70;;;19.00;71.00;;;;;;9177670;19;20045;-69
2023/08/21 02:48:19;;;;;;;7.22;3.28;;;19.00;71.10;;;;;;9171430;19;20022;-69
2023/08/21 02:51:25;;;;;;;7.47;2.88;;;19.00;71.10;;;;;;9172048;19;20534;-69
2023/08/21 02:54:32;;;;;;;7.03;3.13;;;19.00;71.10;;;;;;9176867;19;20018;-71
2023/08/21 02:57:40;;;;;;;6.63;2.80;;;19.00;71.20;;;;;;9174918;19;20475;-69
2023/08/21 03:00:49;;;;;;;10.35;3.17;;;19.00;71.40;;;;;;9174886;19;20022;-69
2023/08/21 03:03:55;;;;;;;11.48;3.25;;;19.00;71.40;;;;;;9176231;19;20111;-68
2023/08/21 03:07:02;;;;;;;10.00;2.80;;;19.00;71.40;;;;;;9176175;19;20022;-70
2023/08/21 03:10:10;;;;;;;7.97;2.85;;;19.00;71.50;;;;;;9172730;19;20010;-69
2023/08/21 03:13:22;;;;;;;11.25;3.15;;;19.00;71.40;;;;;;9175972;19;20019;-70
2023/08/21 03:16:27;;;;;;;7.70;2.97;;;19.00;71.50;;;;;;9172252;19;20051;-69
2023/08/21 03:19:35;;;;;;;5.22;2.80;;;19.00;71.50;;;;;;9174524;19;20023;-70
2023/08/21 03:22:41;;;;;;;6.68;3.10;;;19.00;71.60;;;;;;9174197;19;20015;-70
2023/08/21 03:25:48;;;;;;;6.18;2.70;;;19.00;71.70;;;;;;9175981;19;20018;-69
2023/08/21 03:28:57;;;;;;;9.15;2.60;;;19.00;71.80;;;;;;9175258;19;20026;-71
2023/08/21 03:32:05;;;;;;;6.05;2.42;;;19.00;71.90;;;;;;9173966;19;20363;-70
2023/08/21 03:35:11;;;;;;;5.55;2.90;;;19.00;71.90;;;;;;9173720;19;20025;-69
2023/08/21 03:38:18;;;;;;;8.38;3.28;;;19.00;72.00;;;;;;9175911;19;20014;-69
2023/08/21 03:41:25;;;;;;;4.10;2.53;;;18.90;72.00;;;;;;9168524;19;20025;-70
2023/08/21 03:44:35;;;;;;;8.93;2.95;;;19.00;72.00;;;;;;9173049;19;20007;-69
2023/08/21 03:47:41;;;;;;;4.65;2.90;;;18.90;72.10;;;;;;9174035;19;20045;-69
2023/08/21 03:50:56;;;;;;;8.30;3.15;;;18.90;72.00;;;;;;9170935;19;20014;-69
2023/08/21 03:54:02;;;;;;;4.90;2.70;;;18.90;72.10;;;;;;9172975;19;20028;-69
2023/08/21 03:57:10;;;;;;;6.15;2.60;;;18.90;72.00;;;;;;9172480;19;20844;-71
2023/08/21 04:00:18;;;;;;;10.45;3.15;;;18.80;72.40;;;;;;9172654;19;20519;-70
2023/08/21 04:03:26;;;;;;;8.48;2.95;;;18.80;72.10;;;;;;9171367;19;20014;-69
2023/08/21 04:06:32;;;;;;;4.40;2.40;;;18.80;72.10;;;;;;9172391;19;20014;-69
2023/08/21 04:09:40;;;;;;;12.85;2.92;;;18.80;72.20;;;;;;9172529;19;20011;-69
2023/08/21 04:12:45;;;;;;;8.70;2.72;;;18.80;72.20;;;;;;9180346;19;20018;-71
2023/08/21 04:15:56;;;;;;;7.18;2.70;;;18.70;72.10;;;;;;9181534;19;20050;-72
2023/08/21 04:19:02;;;;;;;8.40;2.63;;;18.70;72.20;;;;;;9183362;19;20010;-68
2023/08/21 04:22:09;;;;;;;6.00;2.70;;;18.70;72.30;;;;;;9181040;19;20023;-70
2023/08/21 04:25:15;;;;;;;9.45;2.92;;;18.60;72.20;;;;;;9182957;19;20014;-70
2023/08/21 04:28:23;;;;;;;8.02;2.70;;;18.60;72.20;;;;;;9183043;19;20590;-69
2023/08/21 04:31:31;;;;;;;8.25;2.58;;;18.60;72.30;;;;;;9178351;19;20025;-69
2023/08/21 04:34:42;;;;;;;8.57;3.15;;;18.60;72.40;;;;;;9182884;19;20110;-70
2023/08/21 04:37:50;;;;;;;5.68;2.70;;;18.70;72.50;;;;;;9180158;19;20011;-69
2023/08/21 04:41:08;;;;;;;7.32;2.70;;;18.50;72.50;;;;;;9174289;19;20038;-69
2023/08/21 04:44:17;;;;;;;5.68;2.88;;;18.50;72.70;;;;;;9168169;19;20023;-69
2023/08/21 04:47:29;;;;;;;5.22;2.33;;;18.40;72.60;;;;;;9177123;19;20052;-68
2023/08/21 04:50:37;;;;;;;6.13;3.40;;;18.40;72.60;;;;;;9180463;19;20086;-70
2023/08/21 04:53:44;;;;;;;8.52;3.00;;;18.40;72.60;;;;;;9181361;19;20018;-70
2023/08/21 04:56:55;;;;;;;8.43;2.70;;;18.40;72.60;;;;;;9179698;19;20350;-70
2023/08/21 05:00:03;;;;;;;4.50;2.95;;;18.40;72.70;;;;;;9180991;19;20018;-69
2023/08/21 05:03:16;;;;;;;6.88;2.92;;;18.40;73.30;;;;;;9179568;19;20019;-68
2023/08/21 05:06:25;;;;;;;9.13;3.10;;;18.30;72.80;;;;;;9179273;19;20016;-69
2023/08/21 05:09:30;;;;;;;6.65;3.10;;;18.30;73.50;;;;;;9179192;19;20476;-69
2023/08/21 05:12:38;;;;;;;12.43;4.10;;;18.30;73.00;;;;;;9179258;19;20026;-68
2023/08/21 05:15:44;;;;;;;9.15;3.50;;;18.20;73.00;;;;;;9179672;19;20111;-68
2023/08/21 05:18:54;;;;;;;11.52;4.13;;;18.20;73.10;;;;;;9178609;19;20015;-69
2023/08/21 05:21:59;;;;;;;12.70;4.00;;;18.20;73.40;;;;;;9177770;19;20092;-69
2023/08/21 05:25:11;;;;;;;13.52;4.07;;;18.20;73.40;;;;;;9180449;19;20532;-69
2023/08/21 05:28:16;;;;;;;6.35;3.60;;;18.20;73.50;;;;;;9180023;19;20014;-69
2023/08/21 05:31:24;;;;;;;13.73;4.47;;;18.30;73.60;;;;;;9177174;19;20021;-69
2023/08/21 05:34:34;;;;;;;14.65;4.30;;;18.20;73.60;;;;;;9178660;19;20028;-70
2023/08/21 05:37:42;;;;;;;9.20;4.40;;;18.30;73.80;;;;;;9177507;19;20018;-68
2023/08/21 05:40:47;;;;;;;12.45;4.30;;;18.30;73.70;;;;;;9178156;19;20017;-70
2023/08/21 05:43:58;;;;;;;10.35;3.90;;;18.30;73.70;;;;;;9174639;19;20019;-71
2023/08/21 05:47:04;;;;;;;4.90;3.40;;;18.40;73.80;;;;;;9177740;19;20487;-71
2023/08/21 05:50:17;;;;;;;10.77;4.35;;;18.40;73.90;;;;;;9177415;19;20048;-69
2023/08/21 05:53:22;;;;;;;9.60;4.60;;;18.40;73.90;;;;;;9177313;19;20500;-70
2023/08/21 05:56:29;;;;;;;14.18;5.93;;;18.40;73.90;;;;;;9177885;19;20038;-69
2023/08/21 05:59:35;;;;;;;9.95;4.90;;;18.50;74.00;;;;;;9171947;19;20058;-69
2023/08/21 06:02:44;;;;;;;9.95;5.18;;;18.50;74.10;;;;;;9176526;19;20019;-70
2023/08/21 06:06:04;;;;;;;13.57;5.88;;;18.50;74.10;;;;;;9176525;19;20048;-70
2023/08/21 06:09:12;;;;;;;8.18;4.90;;;18.60;74.20;;;;;;9177293;19;20070;-69
2023/08/21 06:12:18;;;;;;;14.65;6.00;;;18.60;74.10;;;;;;9174992;19;20482;-74
2023/08/21 06:15:28;;;;;;;15.68;5.63;;;18.70;74.20;;;;;;9176596;19;20018;-74
2023/08/21 06:18:37;;;;;;;13.00;5.95;;;19.10;74.50;;;;;;9176280;19;20046;-78
2023/08/21 06:21:47;;;;;;;12.77;5.35;;;18.90;74.50;;;;;;9175745;19;20018;-77
2023/08/21 06:24:52;;;;;;;9.00;4.90;;;19.10;74.60;;;;;;9176073;19;20082;-77
2023/08/21 06:28:00;;;;;;;10.23;4.53;;;19.20;74.60;;;;;;9176178;19;20462;-76
2023/08/21 06:31:07;;;;;;;12.98;4.10;;;19.30;74.60;;;;;;9175242;19;20484;-76
2023/08/21 06:34:15;;;;;;;11.73;4.18;;;19.50;74.60;;;;;;9175290;19;20015;-71
2023/08/21 06:37:23;;;;;;;13.57;3.78;;;19.60;74.50;;;;;;9174034;19;20025;-72
2023/08/21 06:40:33;;;;;;;7.07;4.00;;;19.80;74.50;;;;;;9172666;19;20018;-70
2023/08/21 06:43:39;;;;;;;10.73;4.22;;;20.00;74.30;;;;;;9167585;19;20043;-72
2023/08/21 06:46:52;;;;;;;11.48;4.35;;;20.10;74.40;;;;;;9172380;19;20014;-73
2023/08/21 06:49:57;;;;;;;9.07;3.97;;;20.30;74.40;;;;;;9173025;19;20018;-76
2023/08/21 06:53:07;;;;;;;15.85;4.60;;;20.40;74.20;;;;;;9174415;19;20006;-70
2023/08/21 06:56:13;;;;;;;8.27;4.10;;;20.60;74.20;;;;;;9173772;19;20022;-74
2023/08/21 06:59:21;;;;;;;11.77;3.83;;;20.80;74.10;;;;;;9173279;19;20006;-73
2023/08/21 07:02:26;;;;;;;10.95;4.25;;;21.00;74.00;;;;;;9172752;19;20018;-72
2023/08/21 07:05:33;;;;;;;13.98;4.75;;;21.20;73.90;;;;;;9173330;19;20014;-73
2023/08/21 07:08:42;;;;;;;11.00;4.20;;;21.50;73.90;;;;;;9173716;19;20020;-75
2023/08/21 07:11:49;;;;;;;9.57;3.75;;;21.70;73.60;;;;;;9173117;19;20019;-73
2023/08/21 07:14:55;;;;;;;16.90;3.35;;;21.90;73.40;;;;;;9169899;19;20021;-77
2023/08/21 07:18:07;;;;;;;11.40;3.38;;;22.10;73.20;;;;;;9173547;19;20048;-77
2023/08/21 07:21:13;;;;;;;13.00;3.50;;;22.20;72.90;;;;;;9173761;19;20048;-73
2023/08/21 07:24:47;;;;;;;8.68;3.17;;;22.30;73.40;;;;;;9173403;19;20025;-72
2023/08/21 07:27:53;;;;;;;11.60;3.40;;;22.50;72.80;;;;;;9169522;19;20055;-71
2023/08/21 07:31:00;;;;;;;9.82;3.38;;;22.60;72.70;;;;;;9166938;19;20015;-72
2023/08/21 07:34:06;;;;;;;10.90;3.28;;;22.90;72.70;;;;;;9150171;19;20484;-72
2023/08/21 07:37:13;;;;;;;14.20;3.13;;;23.00;72.40;;;;;;9149347;19;20041;-71
2023/08/21 07:40:21;;;;;;;9.43;3.33;;;23.10;72.30;;;;;;9152604;19;20022;-70
2023/08/21 07:43:28;;;;;;;7.60;2.88;;;23.40;72.50;;;;;;9147690;19;20022;-69
2023/08/21 07:46:34;;;;;;;12.43;3.75;;;23.60;73.60;;;;;;9161403;19;20010;-70
2023/08/21 07:49:41;;;;;;;13.13;3.38;;;23.90;81.30;;;;;;9156111;19;20017;-72
2023/08/21 07:52:47;;;;;;;11.07;3.33;;;24.00;77.40;;;;;;9155753;19;20022;-74
2023/08/21 07:55:56;;;;;;;5.80;3.08;;;24.30;78.10;;;;;;9157930;19;20372;-69
2023/08/21 07:59:02;;;;;;;10.27;2.97;;;24.50;78.40;;;;;;9157142;19;20018;-70
2023/08/21 08:02:11;;;;;;;10.68;4.07;;;24.50;78.20;;;;;;9159460;19;20593;-70
2023/08/21 08:05:17;;;;;;;9.30;3.17;;;24.60;77.10;;;;;;9162891;19;20014;-69
2023/08/21 08:08:25;;;;;;;10.75;2.92;;;24.70;75.40;;;;;;9167420;19;20013;-70
2023/08/21 08:11:33;;;;;;;8.00;1.98;;;24.80;75.60;;;;;;9161530;19;20496;-70
2023/08/21 08:14:41;;;;;;;12.13;2.15;;;24.90;74.70;;;;;;9159806;19;20019;-70
2023/08/21 08:17:51;;;;;;;6.50;1.90;;;25.10;74.90;;;;;;9159867;19;20014;-71
2023/08/21 08:20:59;;;;;;;6.38;1.88;;;25.20;73.60;;;;;;9159114;19;20018;-73
2023/08/21 08:24:05;;;;;;;12.45;1.90;;;25.30;74.70;;;;;;9158636;19;20014;-72
2023/08/21 08:27:15;;;;;;;5.30;1.45;;;25.40;73.20;;;;;;9162055;19;20015;-74
2023/08/21 08:30:20;;;;;;;7.93;1.55;;;25.50;73.10;;;;;;9161635;19;20466;-68
2023/08/21 08:33:28;;;;;;;11.50;2.28;;;25.60;72.60;;;;;;9156537;19;20014;-68
2023/08/21 08:36:34;;;;;;;6.45;1.50;;;25.60;71.80;;;;;;9162080;19;20051;-68
2023/08/21 08:39:41;;;;;;;2.58;1.30;;;25.70;71.10;;;;;;9156528;19;20503;-69
2023/08/21 08:42:50;;;;;;;11.15;1.88;;;25.80;71.40;;;;;;9153820;19;20019;-69
2023/08/21 08:46:00;;;;;;;4.35;1.55;;;25.90;71.40;;;;;;9162032;19;20019;-69
2023/08/21 08:49:06;;;;;;;7.78;1.65;;;26.00;70.50;;;;;;9157459;19;20029;-68
2023/08/21 08:52:14;;;;;;;6.85;1.55;;;26.20;70.10;;;;;;9160220;19;20015;-70
2023/08/21 08:55:19;;;;;;;4.18;1.58;;;26.20;69.40;;;;;;9160012;19;20488;-69
2023/08/21 08:58:29;;;;;;;5.07;1.42;;;26.30;68.90;;;;;;9157927;19;20010;-70
2023/08/21 09:01:35;;;;;;;5.70;1.40;;;26.40;67.90;;;;;;9158170;19;20098;-69
2023/08/21 09:04:42;;;;;;;3.97;1.80;;;26.50;66.60;;;;;;9161066;19;20368;-69
2023/08/21 09:07:47;;;;;;;5.22;1.60;;;26.50;66.00;;;;;;9156545;19;20090;-71
2023/08/21 09:10:56;;;;;;;6.43;1.80;;;26.60;65.60;;;;;;9157468;19;20634;-71
2023/08/21 09:14:04;;;;;;;6.18;1.88;;;26.70;65.30;;;;;;9156959;19;20015;-68
2023/08/21 09:17:12;;;;;;;6.78;1.92;;;26.70;65.10;;;;;;9157495;19;20017;-71
2023/08/21 09:20:17;;;;;;;7.32;1.73;;;26.80;65.10;;;;;;9157122;19;20018;-70
2023/08/21 09:23:26;;;;;;;5.10;1.40;;;26.80;64.90;;;;;;9155137;19;20011;-70
2023/08/21 09:26:34;;;;;;;9.15;1.52;;;26.80;64.60;;;;;;9157779;19;20533;-71
2023/08/21 09:29:44;;;;;;;6.38;1.60;;;26.90;64.20;;;;;;9158203;19;20022;-70
2023/08/21 09:32:57;;;;;;;3.72;1.33;;;26.90;64.20;;;;;;9158097;19;20018;-72
2023/08/21 09:36:06;;;;;;;5.18;2.10;;;26.90;64.10;;;;;;9156821;19;20049;-71
2023/08/21 09:39:18;;;;;;;7.10;1.38;;;26.80;64.10;;;;;;9155794;19;20010;-71
2023/08/21 09:42:26;;;;;;;;;;;26.90;63.80;;;;;;9160499;19;20487;-71
2023/08/21 09:45:35;;;;;;;11.45;1.75;;;26.90;64.50;;;;;;9162457;19;19914;-71
2023/08/21 09:48:44;;;;;;;11.20;2.03;;;26.80;64.20;;;;;;9156520;19;20019;-69
2023/08/21 09:51:49;;;;;;;5.85;1.50;;;26.80;64.10;;;;;;9154862;19;20026;-69
2023/08/21 09:54:59;;;;;;;6.93;1.60;;;26.80;64.00;;;;;;9163505;19;20010;-70
2023/08/21 09:58:05;;;;;;;3.35;1.30;;;26.70;63.80;;;;;;9168227;19;20022;-69
2023/08/21 10:01:19;;;;;;;7.85;1.20;;;26.70;63.90;;;;;;9172047;19;20014;-69
2023/08/21 10:04:25;;;;;;;5.15;1.33;;;26.80;63.70;;;;;;9175647;19;20033;-69
2023/08/21 10:07:34;;;;;;;3.20;1.25;;;26.80;63.80;;;;;;9169956;19;20506;-70
2023/08/21 10:10:40;;;;;;;5.70;1.48;;;26.90;63.70;;;;;;9176546;19;20018;-69
2023/08/21 10:13:48;;;;;;;4.90;1.58;;;27.00;63.70;;;;;;9177159;19;20487;-70
2023/08/21 10:16:57;;;;;;;5.47;1.00;;;27.10;63.50;;;;;;9175101;19;20030;-71
2023/08/21 10:20:06;;;;;;;4.43;1.13;;;27.20;63.30;;;;;;9173685;19;20064;-69
2023/08/21 10:23:11;;;;;;;2.50;0.60;;;27.40;63.00;;;;;;9153794;19;20106;-68
2023/08/21 10:26:21;;;;;;;4.22;1.13;;;27.40;62.50;;;;;;9155303;19;20014;-67
2023/08/21 10:29:27;;;;;;;7.00;1.30;;;27.70;62.20;;;;;;9157680;19;20014;-69
2023/08/21 10:32:36;;;;;;;4.72;1.30;;;27.80;61.80;;;;;;9151965;19;20021;-71
2023/08/21 10:35:43;;;;;;;2.92;1.13;;;27.90;61.30;;;;;;9156204;19;20490;-68
2023/08/21 10:39:04;;;;;;;5.15;1.10;;;28.00;61.40;;;;;;9155923;19;20025;-68
2023/08/21 10:42:13;;;;;;;5.30;1.05;;;28.10;60.60;;;;;;9153918;19;20022;-72
2023/08/21 10:45:21;;;;;;;5.70;1.60;;;28.10;60.60;;;;;;9150585;19;20011;-68
2023/08/21 10:48:29;;;;;;;2.17;0.93;;;28.20;60.30;;;;;;9154272;19;20038;-71
2023/08/21 10:51:38;;;;;;;5.32;1.23;;;28.30;60.00;;;;;;9154328;19;20014;-69
2023/08/21 10:54:48;;;;;;;4.40;1.20;;;28.40;60.10;;;;;;9155131;19;20010;-71
2023/08/21 10:57:55;;;;;;;6.22;1.10;;;28.50;59.80;;;;;;9153555;19;20567;-69
2023/08/21 11:01:01;;;;;;;7.97;1.67;;;28.60;59.70;;;;;;9155516;19;20014;-68
2023/08/21 11:04:11;;;;;;;5.90;1.10;;;28.80;59.60;;;;;;9153795;19;20021;-71
2023/08/21 11:07:17;;;;;;;3.33;1.10;;;28.90;59.20;;;;;;9152935;19;20119;-70
2023/08/21 11:10:26;;;;;;;7.57;1.10;;;29.00;59.70;;;;;;9153269;19;20014;-67
2023/08/21 11:13:31;;;;;;;6.13;1.35;;;29.20;58.80;;;;;;9153369;19;20090;-67
2023/08/21 11:16:39;;;;;;;3.20;1.40;;;29.30;58.60;;;;;;9152446;19;20022;-72
2023/08/21 11:19:48;;;;;;;2.40;0.80;;;29.40;58.20;;;;;;9159557;19;20029;-67
2023/08/21 11:23:00;;;;;;;4.45;1.00;;;29.50;58.00;;;;;;9162713;19;20014;-72
2023/08/21 11:26:07;;;;;;;6.70;1.10;;;29.60;57.70;;;;;;9162526;19;20016;-72
2023/08/21 11:29:27;;;;;;;8.30;1.10;;;29.80;57.70;;;;;;9158657;19;20014;-68
2023/08/21 11:32:33;;;;;;;4.53;1.15;;;29.90;57.60;;;;;;9163645;19;20448;-70
2023/08/21 11:35:47;;;;;;;11.68;1.30;;;30.00;57.60;;;;;;9160691;19;20015;-69
2023/08/21 11:39:03;;;;;;;9.30;1.50;;;30.10;57.50;;;;;;9163295;19;20014;-70
2023/08/21 11:42:13;;;;;;;7.80;1.55;;;30.20;57.60;;;;;;9162365;19;20014;-71
2023/08/21 11:45:19;;;;;;;4.25;1.20;;;30.40;58.00;;;;;;9157862;19;20432;-67
2023/08/21 11:48:26;;;;;;;5.43;1.00;;;30.50;58.50;;;;;;9159791;19;20014;-68
2023/08/21 11:51:40;;;;;;;2.22;0.70;;;30.60;58.90;;;;;;9162976;19;20903;-70
2023/08/21 11:54:50;;;;;;;8.45;1.63;;;30.70;59.10;;;;;;9158868;19;20011;-67
2023/08/21 11:57:57;;;;;;;3.83;1.08;;;30.70;59.90;;;;;;9163250;19;20026;-68
2023/08/21 12:01:07;;;;;;;6.28;1.20;;;30.90;61.20;;;;;;9163042;19;20014;-65
2023/08/21 12:04:18;;;;;;;8.93;1.30;;;30.90;61.60;;;;;;9161202;19;20038;-66
2023/08/21 12:07:28;;;;;;;5.60;1.10;;;30.90;62.30;;;;;;9169090;19;20349;-67
2023/08/21 12:10:33;;;;;;;4.15;1.30;;;31.00;66.30;;;;;;9169524;19;20018;-69
2023/08/21 12:13:40;;;;;;;6.82;1.70;;;31.10;70.10;;;;;;9168243;19;20479;-67
2023/08/21 12:16:46;;;;;;;4.22;1.20;;;31.20;73.10;;;;;;9167007;19;20383;-67
2023/08/21 12:19:53;;;;;;;8.15;1.58;;;31.30;83.80;;;;;;9166777;19;20018;-69
2023/08/21 12:23:01;;;;;;;4.57;0.90;;;30.70;83.80;;;;;;9167014;19;20060;-70
2023/08/21 12:26:09;;;;;;;5.65;0.82;;;31.40;76.40;;;;;;9164076;19;20536;-67
2023/08/21 12:29:14;;;;;;;4.47;1.30;;;31.40;77.70;;;;;;9167334;19;20017;-68
2023/08/21 12:32:22;;;;;;;3.78;1.00;;;31.30;73.10;;;;;;9163487;19;20795;-70
2023/08/21 12:35:27;;;;;;;5.60;1.20;;;31.40;74.30;;;;;;9157998;19;20045;-70
2023/08/21 12:38:37;;;;;;;4.18;1.35;;;31.40;74.30;;;;;;9158906;19;20018;-70
2023/08/21 12:41:42;;;;;;;4.60;1.20;;;31.40;72.40;;;;;;9163168;19;20018;-68
2023/08/21 12:44:50;;;;;;;7.85;1.33;;;31.40;71.90;;;;;;9157741;19;20014;-66
2023/08/21 12:47:56;;;;;;;3.55;1.08;;;31.40;67.90;;;;;;9162699;19;20022;-69
2023/08/21 12:51:05;;;;;;;3.33;1.08;;;31.30;65.70;;;;;;9164696;19;20019;-67
2023/08/21 12:54:12;;;;;;;6.20;1.30;;;31.50;64.20;;;;;;9164571;19;20431;-67
2023/08/21 12:57:22;;;;;;;5.70;1.23;;;31.40;61.50;;;;;;9167490;19;20040;-69
2023/08/21 13:00:28;;;;;;;3.67;1.25;;;31.50;60.90;;;;;;9164727;19;20014;-67
2023/08/21 13:03:36;;;;;;;5.22;1.30;;;31.50;60.10;;;;;;9160794;19;20014;-69
2023/08/21 13:06:41;;;;;;;9.70;1.25;;;31.50;60.50;;;;;;9159300;19;20015;-68
2023/08/21 13:09:51;;;;;;;7.05;1.58;;;31.60;59.10;;;;;;9157305;19;20014;-69
2023/08/21 13:12:57;;;;;;;5.38;1.20;;;31.60;59.50;;;;;;9156424;19;20026;-71
2023/08/21 13:16:04;;;;;;;5.78;1.30;;;31.70;59.90;;;;;;9157404;19;20022;-71
2023/08/21 13:19:10;;;;;;;4.72;1.67;;;31.70;58.20;;;;;;9157585;19;20090;-70
2023/08/21 13:22:19;;;;;;;3.60;1.30;;;31.70;60.30;;;;;;9156752;19;20929;-73
2023/08/21 13:25:28;;;;;;;5.18;1.10;;;31.70;59.50;;;;;;9156497;19;20038;-72
2023/08/21 13:28:36;;;;;;;4.75;1.10;;;31.70;59.30;;;;;;9155427;19;20010;-68
2023/08/21 13:31:41;;;;;;;6.25;1.25;;;31.60;59.30;;;;;;9157444;19;20023;-72
2023/08/21 13:34:49;;;;;;;6.15;1.23;;;31.70;60.30;;;;;;9157396;19;20025;-70
2023/08/21 13:37:54;;;;;;;3.78;0.98;;;31.60;60.90;;;;;;9153667;19;20047;-73
2023/08/21 13:41:04;;;;;;;4.57;1.20;;;31.60;61.00;;;;;;9158744;19;20022;-71
2023/08/21 13:44:10;;;;;;;7.35;1.77;;;31.40;61.20;;;;;;9151458;19;20018;-69
2023/08/21 13:47:17;;;;;;;5.20;1.20;;;31.40;61.80;;;;;;9158132;19;20018;-71
2023/08/21 13:50:23;;;;;;;5.40;1.38;;;31.30;61.90;;;;;;9156174;19;20023;-72
2023/08/21 13:53:30;;;;;;;4.45;1.25;;;31.30;61.50;;;;;;9157040;19;20024;-71
2023/08/21 13:56:38;;;;;;;2.33;0.90;;;31.20;62.50;;;;;;9154112;19;20022;-71
2023/08/21 13:59:45;;;;;;;4.70;1.10;;;31.10;61.20;;;;;;9157306;19;20356;-72
2023/08/21 14:02:51;;;;;;;5.43;1.05;;;31.00;62.40;;;;;;9155332;19;20027;-76
2023/08/21 14:05:58;;;;;;;6.03;1.30;;;31.00;62.00;;;;;;9156938;19;20317;-77
2023/08/21 14:09:05;;;;;;;5.05;1.10;;;31.30;64.00;;;;;;9156034;19;20032;-77
2023/08/21 14:12:16;;;;;;;5.18;1.23;;;30.90;64.00;;;;;;9155487;19;20010;-74
2023/08/21 14:15:21;;;;;;;7.72;1.33;;;30.70;64.10;;;;;;9157391;19;20052;-75
2023/08/21 14:18:29;;;;;;;9.52;1.40;;;30.60;66.30;;;;;;9152551;19;20721;-74
2023/08/21 14:21:34;;;;;;;3.00;1.10;;;30.50;75.00;;;;;;9152484;19;20135;-77
2023/08/21 14:24:45;;;;;;;2.75;0.85;;;30.40;59.40;;;;;;9154489;19;20013;-75
2023/08/21 14:27:56;;;;;;;4.40;1.13;;;30.40;59.70;;;;;;9157588;19;20014;-77
2023/08/21 14:31:03;;;;;;;5.53;1.45;;;30.30;60.60;;;;;;9156435;19;20017;-76
2023/08/21 14:34:09;;;;;;;3.08;1.15;;;30.20;60.60;;;;;;9153603;19;20114;-79
2023/08/21 14:37:16;;;;;;;6.75;1.02;;;30.10;60.30;;;;;;9154595;19;20010;-75
2023/08/21 14:40:22;;;;;;;4.03;1.20;;;30.20;60.90;;;;;;9157060;19;20267;-74
2023/08/21 14:43:35;;;;;;;6.93;1.95;;;30.10;61.00;;;;;;9152886;19;20018;-76
2023/08/21 14:46:41;;;;;;;3.17;1.13;;;29.90;61.50;;;;;;9162020;19;20022;-81
2023/08/21 14:49:51;;;;;;;5.75;1.30;;;30.10;63.60;;;;;;9162391;19;20021;-75
2023/08/21 14:52:56;;;;;;;3.65;1.13;;;30.20;66.40;;;;;;9162478;19;20019;-76
2023/08/21 14:56:07;;;;;;;6.43;1.15;;;;;;;;;;9161008;19;20028;-76
2023/08/21 14:59:16;;;;;;;5.28;1.30;;;;;;;;;;9160790;19;20078;-80
2023/08/21 15:02:26;;;;;;;4.32;1.30;;;;;;;;;;9160790;19;20496;-74
2023/08/21 15:05:33;;;;;;;5.28;1.13;;;;;;;;;;9162036;19;20026;-76
2023/08/21 15:08:42;;;;;;;4.18;1.48;;;29.80;82.40;;;;;;9159431;19;20404;-72
2023/08/21 15:11:47;;;;;;;4.15;1.38;;;29.80;80.60;;;;;;9161759;19;20078;-75
2023/08/21 15:14:57;;;;;;;9.88;1.63;;;29.70;81.40;;;;;;9157225;19;20017;-74
2023/08/21 15:18:03;;;;;;;4.57;1.33;;;;;;;;;;9154629;19;20644;-74
2023/08/21 15:21:12;;;;;;;5.28;1.30;;;;;;;;;;9152624;19;20019;-74
2023/08/21 15:24:20;;;;;;;8.00;1.13;;;;;;;;;;9153321;19;20022;-75
2023/08/21 15:27:29;;;;;;;4.68;1.65;;;;;;;;;;9153800;19;20017;-73
2023/08/21 15:30:37;;;;;;;3.03;1.50;;;29.70;83.40;;;;;;9154888;19;20487;-73
2023/08/21 15:33:45;;;;;;;5.15;1.38;;;29.80;76.70;;;;;;9155550;19;20025;-74
2023/08/21 15:36:50;;;;;;;6.05;1.65;;;29.80;77.10;;;;;;9155875;19;20505;-73
2023/08/21 15:39:57;;;;;;;4.57;1.65;;;29.80;79.30;;;;;;9154962;19;20010;-75
2023/08/21 15:43:06;;;;;;;9.73;3.10;;;29.70;78.30;;;;;;9146818;19;20496;-70
2023/08/21 15:46:19;;;;;;;;;;;29.70;78.60;;;;;;9154572;19;20007;-71
2023/08/21 15:49:26;;;;;;;9.35;1.50;;;29.70;75.00;;;;;;9152573;19;19938;-74
2023/08/21 15:52:33;;;;;;;3.97;1.40;;;29.90;72.50;;;;;;9158026;19;20082;-73
2023/08/21 15:55:41;;;;;;;4.03;1.08;;;29.80;72.50;;;;;;9160474;19;20015;-70
2023/08/21 15:58:51;;;;;;;7.00;1.67;;;29.70;72.00;;;;;;9156221;19;20006;-73
2023/08/21 16:02:00;;;;;;;8.25;1.75;;;29.70;72.50;;;;;;9156887;19;20030;-75
2023/08/21 16:05:08;;;;;;;5.93;1.20;;;29.50;74.50;;;;;;9158782;19;20010;-73
2023/08/21 16:08:13;;;;;;;4.82;1.58;;;29.30;73.40;;;;;;9160587;19;20029;-73
2023/08/21 16:11:21;;;;;;;8.77;1.60;;;29.40;70.20;;;;;;9161880;19;20018;-73
2023/08/21 16:14:27;;;;;;;5.20;1.40;;;29.30;70.10;;;;;;9167009;19;20011;-75
2023/08/21 16:17:37;;;;;;;4.57;1.65;;;29.20;68.20;;;;;;9164822;19;20022;-72
2023/08/21 16:20:42;;;;;;;6.57;1.73;;;29.20;68.40;;;;;;9167889;19;20130;-73